sensor_id;sensor_type;location;lat;lon;timestamp;temperature;humidity
52073;DHT22;38074;51.232;6.826;2023-12-04T00:03:40;22.10;39.10
52073;DHT22;38074;51.232;6.826;2023-12-04T00:10:56;22.10;39.30
52073;DHT22;38074;51.232;6.826;2023-12-04T00:18:12;22.10;39.30
52073;DHT22;38074;51.232;6.826;2023-12-04T00:25:27;22.10;39.20
52073;DHT22;38074;51.232;6.826;2023-12-04T00:32:43;22.10;39.20
52073;DHT22;38074;51.232;6.826;2023-12-04T00:39:58;22.10;39.10
52073;DHT22;38074;51.232;6.826;2023-12-04T00:47:14;22.10;38.80
52073;DHT22;38074;51.232;6.826;2023-12-04T00:54:29;22.10;39.00
52073;DHT22;38074;51.232;6.826;2023-12-04T01:01:45;22.10;39.00
52073;DHT22;38074;51.232;6.826;2023-12-04T01:09:00;22.00;39.00
52073;DHT22;38074;51.232;6.826;2023-12-04T01:16:16;22.10;39.10
52073;DHT22;38074;51.232;6.826;2023-12-04T01:23:32;22.00;39.20
52073;DHT22;38074;51.232;6.826;2023-12-04T01:30:48;22.10;39.40
52073;DHT22;38074;51.232;6.826;2023-12-04T01:38:03;22.00;39.40
52073;DHT22;38074;51.232;6.826;2023-12-04T01:45:19;22.10;39.40
52073;DHT22;38074;51.232;6.826;2023-12-04T01:52:34;22.00;39.30
52073;DHT22;38074;51.232;6.826;2023-12-04T01:59:51;22.00;39.30
52073;DHT22;38074;51.232;6.826;2023-12-04T02:07:07;22.10;39.30
52073;DHT22;38074;51.232;6.826;2023-12-04T02:14:24;22.10;39.30
52073;DHT22;38074;51.232;6.826;2023-12-04T02:21:40;22.00;39.00
52073;DHT22;38074;51.232;6.826;2023-12-04T02:28:59;22.00;38.90
52073;DHT22;38074;51.232;6.826;2023-12-04T02:36:16;22.00;38.80
52073;DHT22;38074;51.232;6.826;2023-12-04T02:43:32;22.00;38.90
52073;DHT22;38074;51.232;6.826;2023-12-04T02:50:48;22.00;38.90
52073;DHT22;38074;51.232;6.826;2023-12-04T02:58:04;22.00;39.00
52073;DHT22;38074;51.232;6.826;2023-12-04T03:05:19;22.00;38.90
52073;DHT22;38074;51.232;6.826;2023-12-04T03:12:35;22.00;38.80
52073;DHT22;38074;51.232;6.826;2023-12-04T03:19:50;22.00;38.70
52073;DHT22;38074;51.232;6.826;2023-12-04T03:27:06;22.00;38.80
52073;DHT22;38074;51.232;6.826;2023-12-04T03:34:21;22.00;38.60
52073;DHT22;38074;51.232;6.826;2023-12-04T03:41:37;22.00;38.60
52073;DHT22;38074;51.232;6.826;2023-12-04T03:48:52;22.00;38.60
52073;DHT22;38074;51.232;6.826;2023-12-04T03:56:08;22.00;38.50
52073;DHT22;38074;51.232;6.826;2023-12-04T04:03:25;22.00;38.40
52073;DHT22;38074;51.232;6.826;2023-12-04T04:10:41;22.00;38.20
52073;DHT22;38074;51.232;6.826;2023-12-04T04:17:56;22.00;38.30
52073;DHT22;38074;51.232;6.826;2023-12-04T04:25:12;22.00;38.10
52073;DHT22;38074;51.232;6.826;2023-12-04T04:32:27;22.00;38.10
52073;DHT22;38074;51.232;6.826;2023-12-04T04:39:43;22.00;37.90
52073;DHT22;38074;51.232;6.826;2023-12-04T04:46:59;22.00;37.90
52073;DHT22;38074;51.232;6.826;2023-12-04T04:54:14;22.00;38.50
52073;DHT22;38074;51.232;6.826;2023-12-04T05:01:30;22.00;37.80
52073;DHT22;38074;51.232;6.826;2023-12-04T05:08:45;22.00;37.60
52073;DHT22;38074;51.232;6.826;2023-12-04T05:16:01;22.00;37.50
52073;DHT22;38074;51.232;6.826;2023-12-04T05:23:16;22.00;37.50
52073;DHT22;38074;51.232;6.826;2023-12-04T05:30:32;22.00;37.50
52073;DHT22;38074;51.232;6.826;2023-12-04T05:37:47;22.00;37.50
52073;DHT22;38074;51.232;6.826;2023-12-04T05:45:03;22.00;37.40
52073;DHT22;38074;51.232;6.826;2023-12-04T05:52:19;22.00;37.50
52073;DHT22;38074;51.232;6.826;2023-12-04T05:59:35;22.00;37.30
52073;DHT22;38074;51.232;6.826;2023-12-04T06:06:50;22.00;37.30
52073;DHT22;38074;51.232;6.826;2023-12-04T06:14:06;22.00;37.20
52073;DHT22;38074;51.232;6.826;2023-12-04T06:21:22;22.00;37.20
52073;DHT22;38074;51.232;6.826;2023-12-04T06:28:37;22.00;37.20
52073;DHT22;38074;51.232;6.826;2023-12-04T06:35:53;22.00;37.20
52073;DHT22;38074;51.232;6.826;2023-12-04T06:43:09;22.00;37.20
52073;DHT22;38074;51.232;6.826;2023-12-04T06:50:25;22.00;37.20
52073;DHT22;38074;51.232;6.826;2023-12-04T06:57:40;22.00;37.20
52073;DHT22;38074;51.232;6.826;2023-12-04T07:04:56;22.00;37.20
52073;DHT22;38074;51.232;6.826;2023-12-04T07:12:12;22.00;37.20
52073;DHT22;38074;51.232;6.826;2023-12-04T07:19:27;22.00;37.20
52073;DHT22;38074;51.232;6.826;2023-12-04T07:26:44;22.00;37.30
52073;DHT22;38074;51.232;6.826;2023-12-04T07:33:59;22.00;37.30
52073;DHT22;38074;51.232;6.826;2023-12-04T07:41:17;22.00;37.20
52073;DHT22;38074;51.232;6.826;2023-12-04T07:48:33;22.00;37.20
52073;DHT22;38074;51.232;6.826;2023-12-04T07:55:49;22.00;37.20
52073;DHT22;38074;51.232;6.826;2023-12-04T08:03:06;22.00;37.20
52073;DHT22;38074;51.232;6.826;2023-12-04T08:10:22;22.00;37.20
52073;DHT22;38074;51.232;6.826;2023-12-04T08:17:38;22.00;36.80
52073;DHT22;38074;51.232;6.826;2023-12-04T08:24:53;22.00;37.10
52073;DHT22;38074;51.232;6.826;2023-12-04T08:32:09;22.00;37.00
52073;DHT22;38074;51.232;6.826;2023-12-04T08:39:25;21.90;37.20
52073;DHT22;38074;51.232;6.826;2023-12-04T08:46:41;22.00;37.00
52073;DHT22;38074;51.232;6.826;2023-12-04T08:53:57;22.00;37.20
52073;DHT22;38074;51.232;6.826;2023-12-04T09:01:12;21.90;37.10
52073;DHT22;38074;51.232;6.826;2023-12-04T09:08:28;21.90;37.10
52073;DHT22;38074;51.232;6.826;2023-12-04T09:15:43;22.00;36.90
52073;DHT22;38074;51.232;6.826;2023-12-04T09:22:59;22.00;36.90
52073;DHT22;38074;51.232;6.826;2023-12-04T09:30:14;22.00;36.90
52073;DHT22;38074;51.232;6.826;2023-12-04T09:37:30;22.00;36.80
52073;DHT22;38074;51.232;6.826;2023-12-04T09:44:47;21.80;35.20
52073;DHT22;38074;51.232;6.826;2023-12-04T09:52:05;21.80;34.40
52073;DHT22;38074;51.232;6.826;2023-12-04T09:59:23;21.80;35.60
52073;DHT22;38074;51.232;6.826;2023-12-04T10:06:39;21.90;38.30
52073;DHT22;38074;51.232;6.826;2023-12-04T10:13:55;21.90;38.80
52073;DHT22;38074;51.232;6.826;2023-12-04T10:21:10;22.00;38.30
52073;DHT22;38074;51.232;6.826;2023-12-04T10:28:26;22.00;38.50
52073;DHT22;38074;51.232;6.826;2023-12-04T10:35:42;22.00;38.90
52073;DHT22;38074;51.232;6.826;2023-12-04T10:43:11;22.00;38.60
52073;DHT22;38074;51.232;6.826;2023-12-04T10:50:28;22.00;38.60
52073;DHT22;38074;51.232;6.826;2023-12-04T10:57:44;22.00;38.50
52073;DHT22;38074;51.232;6.826;2023-12-04T11:05:06;22.00;38.30
52073;DHT22;38074;51.232;6.826;2023-12-04T11:12:29;21.90;38.60
52073;DHT22;38074;51.232;6.826;2023-12-04T11:27:05;21.90;38.50
52073;DHT22;38074;51.232;6.826;2023-12-04T11:34:21;21.90;38.50
52073;DHT22;38074;51.232;6.826;2023-12-04T11:41:37;22.00;38.80
52073;DHT22;38074;51.232;6.826;2023-12-04T11:49:27;21.90;38.70
52073;DHT22;38074;51.232;6.826;2023-12-04T11:56:33;22.00;39.10
52073;DHT22;38074;51.232;6.826;2023-12-04T12:03:50;22.00;38.90
52073;DHT22;38074;51.232;6.826;2023-12-04T12:11:06;22.00;38.80
52073;DHT22;38074;51.232;6.826;2023-12-04T12:18:22;22.00;39.10
52073;DHT22;38074;51.232;6.826;2023-12-04T12:25:39;22.00;38.50
52073;DHT22;38074;51.232;6.826;2023-12-04T12:32:54;22.00;38.10
52073;DHT22;38074;51.232;6.826;2023-12-04T12:40:10;22.00;37.80
52073;DHT22;38074;51.232;6.826;2023-12-04T12:47:26;22.00;37.60
52073;DHT22;38074;51.232;6.826;2023-12-04T12:54:42;21.90;37.70
52073;DHT22;38074;51.232;6.826;2023-12-04T13:01:59;22.00;37.60
52073;DHT22;38074;51.232;6.826;2023-12-04T13:09:17;22.00;37.50
52073;DHT22;38074;51.232;6.826;2023-12-04T13:16:34;22.00;38.60
52073;DHT22;38074;51.232;6.826;2023-12-04T13:23:49;22.00;39.20
52073;DHT22;38074;51.232;6.826;2023-12-04T13:31:05;22.00;39.20
52073;DHT22;38074;51.232;6.826;2023-12-04T13:38:20;22.00;39.00
52073;DHT22;38074;51.232;6.826;2023-12-04T13:45:36;22.00;38.70
52073;DHT22;38074;51.232;6.826;2023-12-04T13:52:52;22.00;38.40
52073;DHT22;38074;51.232;6.826;2023-12-04T14:00:12;22.00;38.20
52073;DHT22;38074;51.232;6.826;2023-12-04T14:07:27;22.00;38.30
52073;DHT22;38074;51.232;6.826;2023-12-04T14:14:43;22.10;37.90
52073;DHT22;38074;51.232;6.826;2023-12-04T14:21:58;22.00;37.70
52073;DHT22;38074;51.232;6.826;2023-12-04T14:29:14;22.00;37.70
52073;DHT22;38074;51.232;6.826;2023-12-04T14:36:30;22.00;37.70
52073;DHT22;38074;51.232;6.826;2023-12-04T14:43:48;22.00;37.50
52073;DHT22;38074;51.232;6.826;2023-12-04T14:51:04;22.00;37.50
52073;DHT22;38074;51.232;6.826;2023-12-04T14:58:20;22.00;37.40
52073;DHT22;38074;51.232;6.826;2023-12-04T15:05:55;22.00;37.40
52073;DHT22;38074;51.232;6.826;2023-12-04T15:13:29;22.00;37.40
52073;DHT22;38074;51.232;6.826;2023-12-04T15:21:03;22.00;37.40
52073;DHT22;38074;51.232;6.826;2023-12-04T15:28:19;22.00;37.40
52073;DHT22;38074;51.232;6.826;2023-12-04T15:35:34;22.00;37.40
52073;DHT22;38074;51.232;6.826;2023-12-04T15:42:52;22.00;37.40
52073;DHT22;38074;51.232;6.826;2023-12-04T15:50:07;22.00;37.40
52073;DHT22;38074;51.232;6.826;2023-12-04T15:57:23;22.00;37.40
52073;DHT22;38074;51.232;6.826;2023-12-04T16:04:41;22.00;37.60
52073;DHT22;38074;51.232;6.826;2023-12-04T16:11:57;22.00;37.70
52073;DHT22;38074;51.232;6.826;2023-12-04T16:19:12;22.00;37.80
52073;DHT22;38074;51.232;6.826;2023-12-04T16:26:28;22.00;37.90
52073;DHT22;38074;51.232;6.826;2023-12-04T16:33:43;22.00;37.90
52073;DHT22;38074;51.232;6.826;2023-12-04T16:40:59;22.00;38.00
52073;DHT22;38074;51.232;6.826;2023-12-04T16:48:14;22.00;38.20
52073;DHT22;38074;51.232;6.826;2023-12-04T16:55:30;22.10;38.20
52073;DHT22;38074;51.232;6.826;2023-12-04T17:02:45;22.00;38.20
52073;DHT22;38074;51.232;6.826;2023-12-04T17:10:01;22.00;38.30
52073;DHT22;38074;51.232;6.826;2023-12-04T17:17:16;22.00;38.20
52073;DHT22;38074;51.232;6.826;2023-12-04T17:24:32;22.10;38.30
52073;DHT22;38074;51.232;6.826;2023-12-04T17:31:48;22.00;38.00
52073;DHT22;38074;51.232;6.826;2023-12-04T17:39:05;22.00;38.00
52073;DHT22;38074;51.232;6.826;2023-12-04T17:46:23;22.00;38.00
52073;DHT22;38074;51.232;6.826;2023-12-04T17:53:38;22.00;38.20
52073;DHT22;38074;51.232;6.826;2023-12-04T18:00:54;22.00;38.30
52073;DHT22;38074;51.232;6.826;2023-12-04T18:08:10;22.00;38.50
52073;DHT22;38074;51.232;6.826;2023-12-04T18:15:25;22.00;38.60
52073;DHT22;38074;51.232;6.826;2023-12-04T18:22:41;22.00;38.60
52073;DHT22;38074;51.232;6.826;2023-12-04T18:29:58;22.00;38.60
52073;DHT22;38074;51.232;6.826;2023-12-04T18:37:21;22.00;38.80
52073;DHT22;38074;51.232;6.826;2023-12-04T18:44:37;22.10;38.90
52073;DHT22;38074;51.232;6.826;2023-12-04T18:51:53;22.00;38.80
52073;DHT22;38074;51.232;6.826;2023-12-04T18:59:09;22.00;38.80
52073;DHT22;38074;51.232;6.826;2023-12-04T19:06:24;22.00;38.70
52073;DHT22;38074;51.232;6.826;2023-12-04T19:13:40;22.00;38.70
52073;DHT22;38074;51.232;6.826;2023-12-04T19:20:55;22.00;38.70
52073;DHT22;38074;51.232;6.826;2023-12-04T19:28:12;22.00;38.80
52073;DHT22;38074;51.232;6.826;2023-12-04T19:35:27;22.00;38.80
52073;DHT22;38074;51.232;6.826;2023-12-04T19:42:43;22.00;38.80
52073;DHT22;38074;51.232;6.826;2023-12-04T19:49:59;22.00;38.80
52073;DHT22;38074;51.232;6.826;2023-12-04T19:57:14;22.10;38.80
52073;DHT22;38074;51.232;6.826;2023-12-04T20:04:30;22.00;39.00
52073;DHT22;38074;51.232;6.826;2023-12-04T20:11:46;22.00;39.10
52073;DHT22;38074;51.232;6.826;2023-12-04T20:19:02;22.00;39.30
52073;DHT22;38074;51.232;6.826;2023-12-04T20:26:17;22.00;39.20
52073;DHT22;38074;51.232;6.826;2023-12-04T20:33:33;22.10;39.40
52073;DHT22;38074;51.232;6.826;2023-12-04T20:40:48;22.00;39.50
52073;DHT22;38074;51.232;6.826;2023-12-04T20:48:04;22.10;39.60
52073;DHT22;38074;51.232;6.826;2023-12-04T20:55:21;22.10;39.60
52073;DHT22;38074;51.232;6.826;2023-12-04T21:02:38;22.00;39.50
52073;DHT22;38074;51.232;6.826;2023-12-04T21:09:54;22.10;39.60
52073;DHT22;38074;51.232;6.826;2023-12-04T21:17:09;22.00;39.60
52073;DHT22;38074;51.232;6.826;2023-12-04T21:24:25;22.10;39.70
52073;DHT22;38074;51.232;6.826;2023-12-04T21:31:40;22.00;39.80
52073;DHT22;38074;51.232;6.826;2023-12-04T21:38:56;22.00;39.80
52073;DHT22;38074;51.232;6.826;2023-12-04T21:46:11;22.10;39.90
52073;DHT22;38074;51.232;6.826;2023-12-04T21:53:27;22.10;39.90
52073;DHT22;38074;51.232;6.826;2023-12-04T22:00:42;22.10;40.00
52073;DHT22;38074;51.232;6.826;2023-12-04T22:07:58;22.10;40.00
52073;DHT22;38074;51.232;6.826;2023-12-04T22:15:14;22.10;40.00
52073;DHT22;38074;51.232;6.826;2023-12-04T22:22:29;22.10;40.00
52073;DHT22;38074;51.232;6.826;2023-12-04T22:29:45;22.00;40.00
52073;DHT22;38074;51.232;6.826;2023-12-04T22:37:01;22.10;40.00
52073;DHT22;38074;51.232;6.826;2023-12-04T22:44:16;22.00;39.80
52073;DHT22;38074;51.232;6.826;2023-12-04T22:51:32;22.10;39.80
52073;DHT22;38074;51.232;6.826;2023-12-04T22:58:47;22.10;39.70
52073;DHT22;38074;51.232;6.826;2023-12-04T23:06:03;22.00;39.60
52073;DHT22;38074;51.232;6.826;2023-12-04T23:13:19;22.10;39.70
52073;DHT22;38074;51.232;6.826;2023-12-04T23:20:36;22.00;39.60
52073;DHT22;38074;51.232;6.826;2023-12-04T23:27:51;22.00;39.60
52073;DHT22;38074;51.232;6.826;2023-12-04T23:35:08;22.00;40.10
52073;DHT22;38074;51.232;6.826;2023-12-04T23:42:26;22.10;39.50
52073;DHT22;38074;51.232;6.826;2023-12-04T23:49:41;22.00;39.40
52073;DHT22;38074;51.232;6.826;2023-12-04T23:56:57;22.10;39.40
